sensor_id;sensor_type;location;lat;lon;timestamp;pressure;altitude;pressure_sealevel;temperature;humidity
16431;BME280;8325;49.284;7.238;2023-01-26T05:02:42;99254.59;;;-0.56;99.69
16431;BME280;8325;49.284;7.238;2023-01-26T05:06:55;99253.53;;;-0.52;99.25
16431;BME280;8325;49.284;7.238;2023-01-26T05:11:09;99251.44;;;-0.45;99.24
16431;BME280;8325;49.284;7.238;2023-01-26T05:15:39;99243.09;;;-0.49;98.52
16431;BME280;8325;49.284;7.238;2023-01-26T05:19:56;99248.59;;;-0.55;98.28
16431;BME280;8325;49.284;7.238;2023-01-26T05:24:45;99249.06;;;-0.49;99.25
16431;BME280;8325;49.284;7.238;2023-01-26T05:29:08;99254.25;;;-0.50;99.85
16431;BME280;8325;49.284;7.238;2023-01-26T05:33:20;99256.34;;;-0.57;98.21
16431;BME280;8325;49.284;7.238;2023-01-26T05:37:33;99259.38;;;-0.64;100.00
16431;BME280;8325;49.284;7.238;2023-01-26T05:41:45;99256.03;;;-0.66;98.85
16431;BME280;8325;49.284;7.238;2023-01-26T05:46:12;99258.53;;;-0.81;99.65
16431;BME280;8325;49.284;7.238;2023-01-26T05:50:27;99259.59;;;-0.69;100.00
16431;BME280;8325;49.284;7.238;2023-01-26T05:54:57;99258.97;;;-0.88;99.95
16431;BME280;8325;49.284;7.238;2023-01-26T05:59:08;99257.41;;;-0.91;99.79
16431;BME280;8325;49.284;7.238;2023-01-26T06:03:20;99270.81;;;-0.86;99.72
16431;BME280;8325;49.284;7.238;2023-01-26T06:07:32;99270.13;;;-0.89;99.45
16431;BME280;8325;49.284;7.238;2023-01-26T06:11:56;99268.00;;;-0.97;99.09
16431;BME280;8325;49.284;7.238;2023-01-26T06:16:26;99272.13;;;-0.95;100.00
16431;BME280;8325;49.284;7.238;2023-01-26T06:20:38;99271.47;;;-0.98;100.00
16431;BME280;8325;49.284;7.238;2023-01-26T06:24:50;99273.94;;;-1.12;100.00
16431;BME280;8325;49.284;7.238;2023-01-26T06:29:01;99276.44;;;-0.95;100.00
16431;BME280;8325;49.284;7.238;2023-01-26T06:33:16;99281.06;;;-0.86;100.00
16431;BME280;8325;49.284;7.238;2023-01-26T06:37:29;99285.19;;;-1.15;100.00
16431;BME280;8325;49.284;7.238;2023-01-26T06:41:41;99284.69;;;-1.22;100.00
16431;BME280;8325;49.284;7.238;2023-01-26T06:45:56;99283.22;;;-1.26;100.00
16431;BME280;8325;49.284;7.238;2023-01-26T06:50:10;99274.44;;;-1.22;100.00
16431;BME280;8325;49.284;7.238;2023-01-26T06:54:22;99283.56;;;-1.16;100.00
16431;BME280;8325;49.284;7.238;2023-01-26T06:58:46;99287.75;;;-1.31;100.00
16431;BME280;8325;49.284;7.238;2023-01-26T07:03:17;99271.28;;;-1.27;100.00
16431;BME280;8325;49.284;7.238;2023-01-26T07:07:29;99278.09;;;-1.26;99.55
16431;BME280;8325;49.284;7.238;2023-01-26T07:11:41;99277.59;;;-1.32;100.00
16431;BME280;8325;49.284;7.238;2023-01-26T07:15:59;99287.66;;;-1.29;99.01
16431;BME280;8325;49.284;7.238;2023-01-26T07:20:11;99277.53;;;-1.48;99.26
16431;BME280;8325;49.284;7.238;2023-01-26T07:24:23;99291.44;;;-1.52;100.00
16431;BME280;8325;49.284;7.238;2023-01-26T07:28:35;99295.41;;;-1.47;99.54
16431;BME280;8325;49.284;7.238;2023-01-26T07:32:50;99291.63;;;-1.40;99.25
16431;BME280;8325;49.284;7.238;2023-01-26T07:37:01;99301.97;;;-1.41;99.46
16431;BME280;8325;49.284;7.238;2023-01-26T07:41:13;99303.94;;;-1.30;98.40
16431;BME280;8325;49.284;7.238;2023-01-26T07:45:25;99304.53;;;-1.25;98.84
16431;BME280;8325;49.284;7.238;2023-01-26T07:49:37;99306.59;;;-1.32;97.96
16431;BME280;8325;49.284;7.238;2023-01-26T07:53:49;99305.63;;;-1.13;98.18
16431;BME280;8325;49.284;7.238;2023-01-26T07:58:00;99302.66;;;-1.22;97.04
16431;BME280;8325;49.284;7.238;2023-01-26T08:02:12;99309.56;;;-1.24;97.34
16431;BME280;8325;49.284;7.238;2023-01-26T08:06:23;99316.94;;;-1.18;97.38
16431;BME280;8325;49.284;7.238;2023-01-26T08:10:35;99324.47;;;-1.14;97.31
16431;BME280;8325;49.284;7.238;2023-01-26T08:14:47;99331.19;;;-1.12;96.57
16431;BME280;8325;49.284;7.238;2023-01-26T08:18:58;99338.22;;;-1.16;96.55
16431;BME280;8325;49.284;7.238;2023-01-26T08:23:10;99339.34;;;-1.21;95.98
16431;BME280;8325;49.284;7.238;2023-01-26T08:27:21;99338.28;;;-1.17;96.00
16431;BME280;8325;49.284;7.238;2023-01-26T08:31:33;99352.00;;;-1.18;95.21
16431;BME280;8325;49.284;7.238;2023-01-26T08:35:44;99344.03;;;-1.29;95.70
16431;BME280;8325;49.284;7.238;2023-01-26T08:39:56;99346.34;;;-1.07;96.17
16431;BME280;8325;49.284;7.238;2023-01-26T08:44:09;99345.25;;;-1.03;94.80
16431;BME280;8325;49.284;7.238;2023-01-26T08:48:20;99334.50;;;-0.94;94.71
16431;BME280;8325;49.284;7.238;2023-01-26T08:52:32;99338.00;;;-0.95;93.19
16431;BME280;8325;49.284;7.238;2023-01-26T08:56:43;99344.28;;;-1.01;92.86
16431;BME280;8325;49.284;7.238;2023-01-26T09:00:54;99338.66;;;-1.07;92.36
16431;BME280;8325;49.284;7.238;2023-01-26T09:05:06;99338.72;;;-0.93;92.85
16431;BME280;8325;49.284;7.238;2023-01-26T09:09:18;99338.97;;;-0.82;93.06
16431;BME280;8325;49.284;7.238;2023-01-26T09:13:29;99338.88;;;-0.80;91.88
16431;BME280;8325;49.284;7.238;2023-01-26T09:17:41;99343.84;;;-0.93;90.26
16431;BME280;8325;49.284;7.238;2023-01-26T09:21:53;99347.06;;;-1.05;90.73
16431;BME280;8325;49.284;7.238;2023-01-26T09:26:05;99347.72;;;-1.18;90.12
16431;BME280;8325;49.284;7.238;2023-01-26T09:30:16;99352.28;;;-1.23;90.89
16431;BME280;8325;49.284;7.238;2023-01-26T09:34:28;99354.88;;;-1.40;91.54
16431;BME280;8325;49.284;7.238;2023-01-26T09:38:39;99352.09;;;-1.20;89.36
16431;BME280;8325;49.284;7.238;2023-01-26T09:43:03;99362.38;;;-1.20;88.97
16431;BME280;8325;49.284;7.238;2023-01-26T09:47:29;99373.28;;;-1.49;89.45
16431;BME280;8325;49.284;7.238;2023-01-26T09:51:49;99369.47;;;-1.42;88.66
16431;BME280;8325;49.284;7.238;2023-01-26T09:56:04;99365.41;;;-1.29;89.27
16431;BME280;8325;49.284;7.238;2023-01-26T10:00:26;99360.13;;;-1.26;88.76
16431;BME280;8325;49.284;7.238;2023-01-26T10:04:41;99356.09;;;-1.47;88.89
16431;BME280;8325;49.284;7.238;2023-01-26T10:08:55;99348.34;;;-1.30;89.03
16431;BME280;8325;49.284;7.238;2023-01-26T10:13:12;99353.22;;;-1.41;87.12
16431;BME280;8325;49.284;7.238;2023-01-26T10:17:28;99361.88;;;-1.44;88.82
16431;BME280;8325;49.284;7.238;2023-01-26T10:21:43;99354.66;;;-1.35;87.57
16431;BME280;8325;49.284;7.238;2023-01-26T10:26:06;99343.69;;;-1.39;88.19
16431;BME280;8325;49.284;7.238;2023-01-26T10:30:21;99353.22;;;-1.41;88.22
16431;BME280;8325;49.284;7.238;2023-01-26T10:34:33;99343.81;;;-1.25;89.97
16431;BME280;8325;49.284;7.238;2023-01-26T10:38:45;99342.09;;;-1.08;89.03
16431;BME280;8325;49.284;7.238;2023-01-26T10:42:58;99338.09;;;-1.30;88.78
16431;BME280;8325;49.284;7.238;2023-01-26T10:47:17;99340.59;;;-1.28;88.29
16431;BME280;8325;49.284;7.238;2023-01-26T10:51:32;99331.00;;;-1.25;88.76
16431;BME280;8325;49.284;7.238;2023-01-26T10:56:00;99319.72;;;-1.54;87.31
16431;BME280;8325;49.284;7.238;2023-01-26T11:04:39;99329.84;;;-1.35;87.66
16431;BME280;8325;49.284;7.238;2023-01-26T11:08:51;99323.66;;;-1.48;85.80
16431;BME280;8325;49.284;7.238;2023-01-26T11:13:19;99311.81;;;-1.33;86.47
16431;BME280;8325;49.284;7.238;2023-01-26T11:17:41;99307.66;;;-1.36;86.31
16431;BME280;8325;49.284;7.238;2023-01-26T11:21:58;99304.53;;;-1.41;85.64
16431;BME280;8325;49.284;7.238;2023-01-26T11:26:30;99304.09;;;-1.33;85.76
16431;BME280;8325;49.284;7.238;2023-01-26T11:31:08;99299.59;;;-1.12;86.44
16431;BME280;8325;49.284;7.238;2023-01-26T11:35:35;99291.56;;;-1.06;86.10
16431;BME280;8325;49.284;7.238;2023-01-26T11:39:58;99298.50;;;-1.08;84.69
16431;BME280;8325;49.284;7.238;2023-01-26T11:57:52;99274.13;;;-1.16;85.61
16431;BME280;8325;49.284;7.238;2023-01-26T12:02:34;99271.28;;;-1.11;85.04
16431;BME280;8325;49.284;7.238;2023-01-26T12:06:51;99268.22;;;-1.18;85.73
16431;BME280;8325;49.284;7.238;2023-01-26T12:11:22;99266.31;;;-1.14;85.83
16431;BME280;8325;49.284;7.238;2023-01-26T12:15:38;99262.22;;;-1.17;86.71
16431;BME280;8325;49.284;7.238;2023-01-26T12:20:04;99254.03;;;-1.07;85.67
16431;BME280;8325;49.284;7.238;2023-01-26T12:24:35;99252.38;;;-0.02;93.66
16431;BME280;8325;49.284;7.238;2023-01-26T12:29:29;99243.53;;;-0.57;86.47
16431;BME280;8325;49.284;7.238;2023-01-26T12:33:45;99236.84;;;-0.75;86.15
16431;BME280;8325;49.284;7.238;2023-01-26T12:38:22;99240.53;;;-0.95;85.91
16431;BME280;8325;49.284;7.238;2023-01-26T12:42:57;99234.25;;;-1.05;85.99
16431;BME280;8325;49.284;7.238;2023-01-26T12:51:50;99235.16;;;-1.22;87.63
16431;BME280;8325;49.284;7.238;2023-01-26T13:00:38;99225.16;;;-1.27;88.12
16431;BME280;8325;49.284;7.238;2023-01-26T13:04:50;99224.59;;;-1.16;86.34
16431;BME280;8325;49.284;7.238;2023-01-26T13:13:30;99218.69;;;-1.02;85.27
16431;BME280;8325;49.284;7.238;2023-01-26T13:17:51;99218.19;;;-1.09;84.26
16431;BME280;8325;49.284;7.238;2023-01-26T13:31:04;99214.22;;;-1.14;83.61
16431;BME280;8325;49.284;7.238;2023-01-26T13:35:19;99216.72;;;-1.13;84.14
16431;BME280;8325;49.284;7.238;2023-01-26T13:40:03;99222.84;;;-1.16;84.26
16431;BME280;8325;49.284;7.238;2023-01-26T13:44:20;99219.53;;;-1.18;85.07
16431;BME280;8325;49.284;7.238;2023-01-26T13:48:46;99217.78;;;-1.33;84.69
16431;BME280;8325;49.284;7.238;2023-01-26T13:52:57;99225.81;;;-1.23;84.65
16431;BME280;8325;49.284;7.238;2023-01-26T13:57:20;99230.59;;;-1.17;86.23
16431;BME280;8325;49.284;7.238;2023-01-26T14:01:49;99229.06;;;-1.20;84.13
16431;BME280;8325;49.284;7.238;2023-01-26T14:06:07;99235.16;;;-1.06;85.14
16431;BME280;8325;49.284;7.238;2023-01-26T14:10:19;99230.78;;;-1.04;84.51
16431;BME280;8325;49.284;7.238;2023-01-26T14:14:35;99222.84;;;-1.16;84.26
16431;BME280;8325;49.284;7.238;2023-01-26T14:18:48;99241.50;;;-1.29;84.97
16431;BME280;8325;49.284;7.238;2023-01-26T14:27:28;99250.72;;;-1.09;85.94
16431;BME280;8325;49.284;7.238;2023-01-26T14:31:40;99241.53;;;-1.13;86.25
16431;BME280;8325;49.284;7.238;2023-01-26T14:35:59;99245.47;;;-1.08;85.68
16431;BME280;8325;49.284;7.238;2023-01-26T14:51:17;99252.28;;;-0.91;85.55
16431;BME280;8325;49.284;7.238;2023-01-26T14:55:34;99258.66;;;-0.98;86.35
16431;BME280;8325;49.284;7.238;2023-01-26T15:05:34;99253.91;;;-0.90;85.84
16431;BME280;8325;49.284;7.238;2023-01-26T15:09:53;99244.81;;;-0.80;86.51
16431;BME280;8325;49.284;7.238;2023-01-26T15:14:32;99248.41;;;-0.68;86.09
16431;BME280;8325;49.284;7.238;2023-01-26T15:18:45;99246.13;;;-0.73;86.41
16431;BME280;8325;49.284;7.238;2023-01-26T15:22:58;99251.56;;;-0.63;87.05
16431;BME280;8325;49.284;7.238;2023-01-26T15:27:10;99251.75;;;-0.66;86.41
16431;BME280;8325;49.284;7.238;2023-01-26T15:31:36;99256.69;;;-0.63;86.68
16431;BME280;8325;49.284;7.238;2023-01-26T15:35:56;99248.66;;;-0.57;86.91
16431;BME280;8325;49.284;7.238;2023-01-26T15:40:09;99238.69;;;-0.47;87.13
16431;BME280;8325;49.284;7.238;2023-01-26T15:44:21;99241.31;;;-0.63;86.42
16431;BME280;8325;49.284;7.238;2023-01-26T15:48:33;99238.66;;;-0.61;87.46
16431;BME280;8325;49.284;7.238;2023-01-26T15:52:45;99238.16;;;-0.52;87.55
16431;BME280;8325;49.284;7.238;2023-01-26T15:56:57;99236.13;;;-0.47;87.93
16431;BME280;8325;49.284;7.238;2023-01-26T16:01:13;99236.41;;;-0.52;86.29
16431;BME280;8325;49.284;7.238;2023-01-26T16:05:26;99237.13;;;-0.50;87.01
16431;BME280;8325;49.284;7.238;2023-01-26T16:09:37;99236.94;;;-0.47;87.09
16431;BME280;8325;49.284;7.238;2023-01-26T16:13:49;99242.69;;;-0.57;86.85
16431;BME280;8325;49.284;7.238;2023-01-26T16:18:14;99237.22;;;-0.51;87.21
16431;BME280;8325;49.284;7.238;2023-01-26T16:22:25;99242.13;;;-0.62;87.08
16431;BME280;8325;49.284;7.238;2023-01-26T16:27:19;99239.97;;;-0.54;86.96
16431;BME280;8325;49.284;7.238;2023-01-26T16:32:43;99247.22;;;-0.47;87.61
16431;BME280;8325;49.284;7.238;2023-01-26T16:36:57;99243.56;;;-0.73;88.81
16431;BME280;8325;49.284;7.238;2023-01-26T16:45:27;99241.69;;;-0.85;89.80
16431;BME280;8325;49.284;7.238;2023-01-26T16:49:39;99236.69;;;-0.72;90.18
16431;BME280;8325;49.284;7.238;2023-01-26T16:53:51;99242.00;;;-0.75;90.46
16431;BME280;8325;49.284;7.238;2023-01-26T16:58:02;99253.81;;;-0.73;90.78
16431;BME280;8325;49.284;7.238;2023-01-26T17:02:24;99248.59;;;-0.71;90.49
16431;BME280;8325;49.284;7.238;2023-01-26T17:06:36;99245.53;;;-0.78;91.17
16431;BME280;8325;49.284;7.238;2023-01-26T17:10:48;99241.66;;;-0.69;91.66
16431;BME280;8325;49.284;7.238;2023-01-26T17:15:12;99246.19;;;-0.58;91.84
16431;BME280;8325;49.284;7.238;2023-01-26T17:19:24;99251.38;;;-0.60;92.06
16431;BME280;8325;49.284;7.238;2023-01-26T17:23:36;99249.28;;;-0.67;91.81
16431;BME280;8325;49.284;7.238;2023-01-26T17:27:50;99239.06;;;-0.69;92.49
16431;BME280;8325;49.284;7.238;2023-01-26T17:32:01;99241.00;;;-0.73;93.09
16431;BME280;8325;49.284;7.238;2023-01-26T17:36:14;99241.56;;;-0.67;93.91
16431;BME280;8325;49.284;7.238;2023-01-26T17:40:26;99248.94;;;-0.61;94.41
16431;BME280;8325;49.284;7.238;2023-01-26T17:44:37;99240.13;;;-0.57;95.27
16431;BME280;8325;49.284;7.238;2023-01-26T17:48:50;99245.00;;;-0.53;95.54
16431;BME280;8325;49.284;7.238;2023-01-26T17:53:01;99241.59;;;-0.53;95.79
16431;BME280;8325;49.284;7.238;2023-01-26T17:57:13;99245.91;;;-0.54;95.51
16431;BME280;8325;49.284;7.238;2023-01-26T18:01:25;99237.41;;;-0.54;95.60
16431;BME280;8325;49.284;7.238;2023-01-26T18:05:37;99253.38;;;-0.49;95.78
16431;BME280;8325;49.284;7.238;2023-01-26T18:09:48;99246.84;;;-0.55;95.64
16431;BME280;8325;49.284;7.238;2023-01-26T18:14:00;99252.03;;;-0.56;95.88
16431;BME280;8325;49.284;7.238;2023-01-26T18:18:12;99251.16;;;-0.55;96.46
16431;BME280;8325;49.284;7.238;2023-01-26T18:22:24;99253.72;;;-0.55;96.79
16431;BME280;8325;49.284;7.238;2023-01-26T18:26:36;99267.44;;;-0.56;96.07
16431;BME280;8325;49.284;7.238;2023-01-26T18:30:48;99260.72;;;-0.59;95.94
16431;BME280;8325;49.284;7.238;2023-01-26T18:34:59;99261.66;;;-0.60;96.06
16431;BME280;8325;49.284;7.238;2023-01-26T18:39:12;99259.91;;;-0.59;96.13
16431;BME280;8325;49.284;7.238;2023-01-26T18:43:24;99267.88;;;-0.64;96.51
16431;BME280;8325;49.284;7.238;2023-01-26T18:47:43;99263.63;;;-0.65;96.74
16431;BME280;8325;49.284;7.238;2023-01-26T18:51:54;99268.72;;;-0.63;97.81
16431;BME280;8325;49.284;7.238;2023-01-26T18:56:08;99269.34;;;-0.60;97.51
16431;BME280;8325;49.284;7.238;2023-01-26T19:00:20;99268.59;;;-0.62;97.70
16431;BME280;8325;49.284;7.238;2023-01-26T19:04:32;99262.47;;;-0.59;98.22
16431;BME280;8325;49.284;7.238;2023-01-26T19:08:45;99258.16;;;-0.59;97.59
16431;BME280;8325;49.284;7.238;2023-01-26T19:12:57;99261.66;;;-0.60;98.24
16431;BME280;8325;49.284;7.238;2023-01-26T19:17:09;99259.91;;;-0.59;98.44
16431;BME280;8325;49.284;7.238;2023-01-26T19:21:21;99268.53;;;-0.60;98.84
16431;BME280;8325;49.284;7.238;2023-01-26T19:25:35;99268.59;;;-0.62;99.02
16431;BME280;8325;49.284;7.238;2023-01-26T19:29:47;99265.97;;;-0.60;99.07
16431;BME280;8325;49.284;7.238;2023-01-26T19:34:03;99261.00;;;-0.63;98.84
16431;BME280;8325;49.284;7.238;2023-01-26T19:38:15;99274.59;;;-0.61;98.89
16431;BME280;8325;49.284;7.238;2023-01-26T19:42:27;99269.34;;;-0.60;99.06
16431;BME280;8325;49.284;7.238;2023-01-26T19:46:38;99258.09;;;-0.57;99.49
16431;BME280;8325;49.284;7.238;2023-01-26T19:51:11;99258.84;;;-0.55;99.27
16431;BME280;8325;49.284;7.238;2023-01-26T19:55:22;99258.84;;;-0.55;99.07
16431;BME280;8325;49.284;7.238;2023-01-26T19:59:34;99257.16;;;-0.56;99.72
16431;BME280;8325;49.284;7.238;2023-01-26T20:03:53;99253.72;;;-0.55;99.73
16431;BME280;8325;49.284;7.238;2023-01-26T20:08:07;99258.84;;;-0.55;99.35
16431;BME280;8325;49.284;7.238;2023-01-26T20:12:19;99248.59;;;-0.55;100.00
16431;BME280;8325;49.284;7.238;2023-01-26T20:16:31;99241.34;;;-0.49;99.88
16431;BME280;8325;49.284;7.238;2023-01-26T20:20:48;99242.06;;;-0.47;99.64
16431;BME280;8325;49.284;7.238;2023-01-26T20:24:59;99245.31;;;-0.43;99.40
16431;BME280;8325;49.284;7.238;2023-01-26T20:29:16;99245.22;;;-0.41;99.37
16431;BME280;8325;49.284;7.238;2023-01-26T20:33:28;99241.56;;;-0.37;99.70
16431;BME280;8325;49.284;7.238;2023-01-26T20:37:39;99237.44;;;-0.40;100.00
16431;BME280;8325;49.284;7.238;2023-01-26T20:41:51;99235.78;;;-0.41;100.00
16431;BME280;8325;49.284;7.238;2023-01-26T20:46:05;99236.53;;;-0.39;100.00
16431;BME280;8325;49.284;7.238;2023-01-26T20:50:17;99227.19;;;-0.40;99.91
16431;BME280;8325;49.284;7.238;2023-01-26T20:54:28;99234.94;;;-0.41;100.00
16431;BME280;8325;49.284;7.238;2023-01-26T20:58:41;99226.31;;;-0.40;100.00
16431;BME280;8325;49.284;7.238;2023-01-26T21:02:55;99229.75;;;-0.40;100.00
16431;BME280;8325;49.284;7.238;2023-01-26T21:07:07;99223.69;;;-0.39;100.00
16431;BME280;8325;49.284;7.238;2023-01-26T21:11:19;99223.69;;;-0.39;100.00
16431;BME280;8325;49.284;7.238;2023-01-26T21:15:31;99227.00;;;-0.37;100.00
16431;BME280;8325;49.284;7.238;2023-01-26T21:19:42;99216.72;;;-0.37;100.00
16431;BME280;8325;49.284;7.238;2023-01-26T21:23:54;99208.09;;;-0.36;100.00
16431;BME280;8325;49.284;7.238;2023-01-26T21:28:05;99208.09;;;-0.36;100.00
16431;BME280;8325;49.284;7.238;2023-01-26T21:32:17;99207.09;;;-0.33;100.00
16431;BME280;8325;49.284;7.238;2023-01-26T21:36:30;99207.09;;;-0.33;100.00
16431;BME280;8325;49.284;7.238;2023-01-26T21:40:42;99207.00;;;-0.32;100.00
16431;BME280;8325;49.284;7.238;2023-01-26T21:44:53;99209.41;;;-0.29;100.00
16431;BME280;8325;49.284;7.238;2023-01-26T21:49:26;99199.75;;;-0.25;100.00
16431;BME280;8325;49.284;7.238;2023-01-26T21:53:38;99190.53;;;-0.28;100.00
16431;BME280;8325;49.284;7.238;2023-01-26T21:57:50;99184.34;;;-0.25;100.00
16431;BME280;8325;49.284;7.238;2023-01-26T22:02:20;99181.06;;;-0.27;100.00
16431;BME280;8325;49.284;7.238;2023-01-26T22:06:33;99176.03;;;-0.29;100.00
16431;BME280;8325;49.284;7.238;2023-01-26T22:10:52;99182.25;;;-0.33;100.00
16431;BME280;8325;49.284;7.238;2023-01-26T22:15:03;99174.38;;;-0.30;100.00
16431;BME280;8325;49.284;7.238;2023-01-26T22:19:16;99173.44;;;-0.29;100.00
16431;BME280;8325;49.284;7.238;2023-01-26T22:23:30;99174.38;;;-0.30;100.00
16431;BME280;8325;49.284;7.238;2023-01-26T22:27:42;99176.19;;;-0.32;100.00
